N36887 -KAPF
Flight info
| Callsign | N36887 |
|---|---|
| Flight time | N/A |
| Altitude | VFR/125 |
| Route | |
| Aircraft |
Departure
| Time | N/A |
|---|---|
| Airport | - |
Arrival
| Time | 2026-04-12 02:12 |
|---|---|
| Airport | Naples Municipal Airport (KAPF) |
| Time | Latitude | Longitude | Altitude | Speed | Heading |
|---|---|---|---|---|---|
| 2026-04-12 01:06 | 27.90485 | -82.69002 | 19 ft | 0 kts | 173° |
| 2026-04-12 01:21 | 27.90483 | -82.69002 | 19 ft | 4 kts | 170° |
| 2026-04-12 01:21 | 27.90456 | -82.68912 | 19 ft | 15 kts | 134° |
| 2026-04-12 01:22 | 27.90320 | -82.68877 | 19 ft | 26 kts | 172° |
| 2026-04-12 01:22 | 27.90230 | -82.68862 | 18 ft | 7 kts | 173° |
| 2026-04-12 01:22 | 27.90193 | -82.68858 | 18 ft | 0 kts | 174° |
| 2026-04-12 01:24 | 27.90164 | -82.68857 | 18 ft | 17 kts | 179° |
| 2026-04-12 01:24 | 27.90061 | -82.68840 | 15 ft | 0 kts | 93° |
| 2026-04-12 01:24 | 27.90128 | -82.68793 | 16 ft | 24 kts | 29° |
| 2026-04-12 01:24 | 27.90408 | -82.68535 | 18 ft | 81 kts | 39° |
| 2026-04-12 01:25 | 27.90942 | -82.68039 | 153 ft | 111 kts | 39° |
| 2026-04-12 01:25 | 27.91577 | -82.67472 | 500 ft | 122 kts | 39° |
| 2026-04-12 01:25 | 27.92335 | -82.67034 | 988 ft | 123 kts | 7° |
| 2026-04-12 01:25 | 27.93005 | -82.67653 | 1442 ft | 147 kts | 290° |
| 2026-04-12 01:26 | 27.93005 | -82.68876 | 1725 ft | 164 kts | 260° |
| 2026-04-12 01:26 | 27.92491 | -82.69964 | 2226 ft | 150 kts | 207° |
| 2026-04-12 01:26 | 27.91498 | -82.70233 | 2589 ft | 149 kts | 174° |
| 2026-04-12 01:26 | 27.90468 | -82.70190 | 3023 ft | 147 kts | 167° |
| 2026-04-12 01:27 | 27.89455 | -82.69971 | 3372 ft | 149 kts | 156° |
| 2026-04-12 01:27 | 27.88503 | -82.69577 | 3864 ft | 139 kts | 150° |
| 2026-04-12 01:27 | 27.87635 | -82.69183 | 4447 ft | 130 kts | 155° |
| 2026-04-12 01:27 | 27.86799 | -82.68841 | 4936 ft | 130 kts | 155° |
| 2026-04-12 01:28 | 27.85930 | -82.68477 | 5330 ft | 136 kts | 154° |
| 2026-04-12 01:28 | 27.85030 | -82.68103 | 5738 ft | 139 kts | 155° |
| 2026-04-12 01:28 | 27.84119 | -82.67722 | 6203 ft | 139 kts | 155° |
| 2026-04-12 01:28 | 27.83220 | -82.67343 | 6688 ft | 137 kts | 155° |
| 2026-04-12 01:29 | 27.82329 | -82.66960 | 7120 ft | 137 kts | 155° |
| 2026-04-12 01:29 | 27.81433 | -82.66573 | 7526 ft | 139 kts | 156° |
| 2026-04-12 01:29 | 27.80520 | -82.66166 | 7921 ft | 142 kts | 155° |
| 2026-04-12 01:29 | 27.79595 | -82.65755 | 8344 ft | 143 kts | 155° |
| 2026-04-12 01:30 | 27.78664 | -82.65343 | 8772 ft | 144 kts | 155° |
| 2026-04-12 01:30 | 27.77729 | -82.64918 | 9198 ft | 145 kts | 155° |
| 2026-04-12 01:30 | 27.76787 | -82.64492 | 9635 ft | 146 kts | 154° |
| 2026-04-12 01:30 | 27.75840 | -82.64077 | 10075 ft | 146 kts | 155° |
| 2026-04-12 01:31 | 27.74886 | -82.63661 | 10468 ft | 147 kts | 155° |
| 2026-04-12 01:31 | 27.73921 | -82.63240 | 10838 ft | 150 kts | 155° |
| 2026-04-12 01:31 | 27.72938 | -82.62800 | 11206 ft | 153 kts | 155° |
| 2026-04-12 01:31 | 27.71952 | -82.62362 | 11585 ft | 155 kts | 155° |
| 2026-04-12 01:32 | 27.70940 | -82.61917 | 11983 ft | 156 kts | 155° |
| 2026-04-12 01:32 | 27.69920 | -82.61469 | 12380 ft | 158 kts | 155° |
| 2026-04-12 01:32 | 27.68890 | -82.61017 | 12774 ft | 160 kts | 155° |
| 2026-04-12 01:32 | 27.67845 | -82.60559 | 13164 ft | 162 kts | 155° |
| 2026-04-12 01:33 | 27.66785 | -82.60097 | 13562 ft | 164 kts | 155° |
| 2026-04-12 01:33 | 27.65713 | -82.59629 | 13962 ft | 166 kts | 155° |
| 2026-04-12 01:33 | 27.64629 | -82.59158 | 14326 ft | 168 kts | 155° |
| 2026-04-12 01:33 | 27.63537 | -82.58682 | 14681 ft | 169 kts | 155° |
| 2026-04-12 01:34 | 27.62432 | -82.58198 | 14974 ft | 176 kts | 155° |
| 2026-04-12 01:34 | 27.61132 | -82.57613 | 14666 ft | 212 kts | 155° |
| 2026-04-12 01:34 | 27.59762 | -82.56994 | 14880 ft | 212 kts | 155° |
| 2026-04-12 01:34 | 27.58384 | -82.56370 | 15075 ft | 213 kts | 154° |
| 2026-04-12 01:35 | 27.57027 | -82.55718 | 15191 ft | 218 kts | 154° |
| 2026-04-12 01:35 | 27.55592 | -82.55054 | 15209 ft | 226 kts | 155° |
| 2026-04-12 01:35 | 27.54102 | -82.54368 | 15116 ft | 236 kts | 155° |
| 2026-04-12 01:35 | 27.52568 | -82.53638 | 15020 ft | 242 kts | 154° |
| 2026-04-12 01:36 | 27.51013 | -82.52886 | 14930 ft | 245 kts | 154° |
| 2026-04-12 01:36 | 27.49431 | -82.52118 | 14808 ft | 248 kts | 154° |
| 2026-04-12 01:36 | 27.47857 | -82.51309 | 14689 ft | 249 kts | 151° |
| 2026-04-12 01:36 | 27.46313 | -82.50423 | 14608 ft | 248 kts | 150° |
| 2026-04-12 01:37 | 27.44788 | -82.49518 | 14521 ft | 248 kts | 149° |
| 2026-04-12 01:37 | 27.43264 | -82.48605 | 14415 ft | 248 kts | 149° |
| 2026-04-12 01:37 | 27.41738 | -82.47687 | 14322 ft | 248 kts | 149° |
| 2026-04-12 01:37 | 27.40218 | -82.46773 | 14241 ft | 247 kts | 149° |
| 2026-04-12 01:38 | 27.38696 | -82.45859 | 14127 ft | 248 kts | 149° |
| 2026-04-12 01:38 | 27.37172 | -82.44945 | 14026 ft | 247 kts | 149° |
| 2026-04-12 01:38 | 27.35663 | -82.44041 | 13990 ft | 245 kts | 149° |
| 2026-04-12 01:38 | 27.34160 | -82.43140 | 13903 ft | 245 kts | 149° |
| 2026-04-12 01:39 | 27.32657 | -82.42240 | 13811 ft | 245 kts | 149° |
| 2026-04-12 01:39 | 27.31171 | -82.41349 | 13702 ft | 245 kts | 149° |
| 2026-04-12 01:39 | 27.29695 | -82.40471 | 14093 ft | 218 kts | 150° |
| 2026-04-12 01:39 | 27.28381 | -82.39717 | 14528 ft | 207 kts | 149° |
| 2026-04-12 01:40 | 27.27119 | -82.39005 | 14806 ft | 205 kts | 151° |
| 2026-04-12 01:40 | 27.25819 | -82.38307 | 14987 ft | 209 kts | 151° |
| 2026-04-12 01:40 | 27.24504 | -82.37604 | 15225 ft | 209 kts | 151° |
| 2026-04-12 01:40 | 27.23195 | -82.36891 | 15454 ft | 210 kts | 151° |
| 2026-04-12 01:41 | 27.21918 | -82.36153 | 15827 ft | 202 kts | 149° |
| 2026-04-12 01:41 | 27.20690 | -82.35470 | 16296 ft | 195 kts | 151° |
| 2026-04-12 01:41 | 27.19449 | -82.34801 | 16507 ft | 202 kts | 152° |
| 2026-04-12 01:41 | 27.18150 | -82.34102 | 16626 ft | 210 kts | 152° |
| 2026-04-12 01:42 | 27.16894 | -82.33382 | 16579 ft | 192 kts | 148° |
| 2026-04-12 01:42 | 27.15771 | -82.32681 | 16229 ft | 183 kts | 148° |
| 2026-04-12 01:42 | 27.14604 | -82.31932 | 15428 ft | 200 kts | 146° |
| 2026-04-12 01:42 | 27.13382 | -82.31133 | 14719 ft | 206 kts | 146° |
| 2026-04-12 01:43 | 27.12128 | -82.30310 | 13990 ft | 211 kts | 147° |
| 2026-04-12 01:43 | 27.10831 | -82.29532 | 13331 ft | 208 kts | 148° |
| 2026-04-12 01:43 | 27.09598 | -82.28796 | 12979 ft | 192 kts | 149° |
| 2026-04-12 01:43 | 27.08438 | -82.28109 | 12520 ft | 187 kts | 148° |
| 2026-04-12 01:44 | 27.07282 | -82.27430 | 12011 ft | 187 kts | 149° |
| 2026-04-12 01:44 | 27.06126 | -82.26788 | 11493 ft | 188 kts | 150° |
| 2026-04-12 01:44 | 27.04963 | -82.26150 | 11086 ft | 183 kts | 150° |
| 2026-04-12 01:44 | 27.03865 | -82.25547 | 10898 ft | 167 kts | 150° |
| 2026-04-12 01:45 | 27.02863 | -82.25003 | 10783 ft | 153 kts | 150° |
| 2026-04-12 01:45 | 27.01822 | -82.24439 | 10664 ft | 176 kts | 150° |
| 2026-04-12 01:45 | 27.00692 | -82.23823 | 10429 ft | 184 kts | 151° |
| 2026-04-12 01:45 | 26.99549 | -82.23161 | 10237 ft | 185 kts | 148° |
| 2026-04-12 01:46 | 26.98411 | -82.22490 | 10057 ft | 185 kts | 150° |
| 2026-04-12 01:46 | 26.97276 | -82.21843 | 9826 ft | 186 kts | 150° |
| 2026-04-12 01:46 | 26.96108 | -82.21186 | 9574 ft | 188 kts | 150° |
| 2026-04-12 01:46 | 26.94929 | -82.20531 | 9292 ft | 191 kts | 150° |
| 2026-04-12 01:47 | 26.93728 | -82.19836 | 8849 ft | 197 kts | 148° |
| 2026-04-12 01:47 | 26.92534 | -82.19083 | 8473 ft | 197 kts | 146° |
| 2026-04-12 01:47 | 26.91370 | -82.18279 | 8123 ft | 196 kts | 146° |
| 2026-04-12 01:47 | 26.90197 | -82.17494 | 7853 ft | 190 kts | 146° |
| 2026-04-12 01:48 | 26.89130 | -82.16768 | 7976 ft | 170 kts | 144° |
| 2026-04-12 01:48 | 26.88112 | -82.16114 | 7936 ft | 167 kts | 148° |
| 2026-04-12 01:48 | 26.87085 | -82.15526 | 7929 ft | 163 kts | 150° |
| 2026-04-12 01:48 | 26.86079 | -82.14975 | 7981 ft | 158 kts | 150° |
| 2026-04-12 01:49 | 26.85118 | -82.14469 | 8093 ft | 151 kts | 150° |
| 2026-04-12 01:49 | 26.84159 | -82.13976 | 8102 ft | 153 kts | 151° |
| 2026-04-12 01:49 | 26.83189 | -82.13474 | 8125 ft | 154 kts | 150° |
| 2026-04-12 01:49 | 26.82218 | -82.12973 | 8165 ft | 153 kts | 150° |
| 2026-04-12 01:50 | 26.81255 | -82.12483 | 8221 ft | 151 kts | 151° |
| 2026-04-12 01:50 | 26.80316 | -82.11994 | 8293 ft | 146 kts | 151° |
| 2026-04-12 01:50 | 26.79411 | -82.11506 | 8336 ft | 144 kts | 150° |
| 2026-04-12 01:50 | 26.78509 | -82.11030 | 8346 ft | 144 kts | 151° |
| 2026-04-12 01:51 | 26.76659 | -82.10039 | 8345 ft | 149 kts | 150° |
| 2026-04-12 01:51 | 26.75715 | -82.09550 | 8381 ft | 149 kts | 150° |
| 2026-04-12 01:51 | 26.74776 | -82.09068 | 8424 ft | 148 kts | 150° |
| 2026-04-12 01:52 | 26.73847 | -82.08586 | 8476 ft | 147 kts | 151° |
| 2026-04-12 01:52 | 26.72928 | -82.08089 | 8517 ft | 147 kts | 150° |
| 2026-04-12 01:52 | 26.72004 | -82.07597 | 8560 ft | 147 kts | 150° |
| 2026-04-12 01:52 | 26.71076 | -82.07113 | 8589 ft | 147 kts | 151° |
| 2026-04-12 01:53 | 26.70149 | -82.06621 | 8625 ft | 148 kts | 151° |
| 2026-04-12 01:53 | 26.69220 | -82.06117 | 8662 ft | 148 kts | 150° |
| 2026-04-12 01:53 | 26.68292 | -82.05612 | 8708 ft | 149 kts | 150° |
| 2026-04-12 01:53 | 26.67373 | -82.05113 | 8755 ft | 149 kts | 151° |
| 2026-04-12 01:54 | 26.66441 | -82.04606 | 8806 ft | 149 kts | 151° |
| 2026-04-12 01:54 | 26.65511 | -82.04098 | 8852 ft | 149 kts | 150° |
| 2026-04-12 01:54 | 26.64580 | -82.03592 | 8898 ft | 149 kts | 150° |
| 2026-04-12 01:54 | 26.63646 | -82.03095 | 8942 ft | 149 kts | 150° |
| 2026-04-12 01:55 | 26.62695 | -82.02620 | 8989 ft | 149 kts | 152° |
| 2026-04-12 01:55 | 26.61750 | -82.02137 | 9036 ft | 149 kts | 150° |
| 2026-04-12 01:55 | 26.60798 | -82.01668 | 9082 ft | 149 kts | 152° |
| 2026-04-12 01:55 | 26.59854 | -82.01185 | 9126 ft | 150 kts | 150° |
| 2026-04-12 01:56 | 26.58904 | -82.00699 | 9167 ft | 150 kts | 152° |
| 2026-04-12 01:56 | 26.58281 | -82.00366 | 9191 ft | 150 kts | 150° |
| 2026-04-12 01:56 | 26.57336 | -81.99866 | 9227 ft | 150 kts | 151° |
| 2026-04-12 01:56 | 26.56388 | -81.99372 | 9264 ft | 150 kts | 151° |
| 2026-04-12 01:57 | 26.55134 | -81.98721 | 9322 ft | 150 kts | 150° |
| 2026-04-12 01:57 | 26.54175 | -81.98254 | 9358 ft | 150 kts | 150° |
| 2026-04-12 01:57 | 26.53527 | -81.97942 | 9384 ft | 150 kts | 150° |
| 2026-04-12 01:57 | 26.52565 | -81.97482 | 9420 ft | 150 kts | 150° |
| 2026-04-12 01:58 | 26.51615 | -81.97030 | 9449 ft | 150 kts | 150° |
| 2026-04-12 01:58 | 26.50649 | -81.96570 | 9480 ft | 151 kts | 151° |
| 2026-04-12 01:58 | 26.49687 | -81.96096 | 9517 ft | 151 kts | 150° |
| 2026-04-12 01:58 | 26.48728 | -81.95613 | 9551 ft | 151 kts | 150° |
| 2026-04-12 01:59 | 26.47762 | -81.95138 | 9591 ft | 152 kts | 151° |
| 2026-04-12 01:59 | 26.46801 | -81.94658 | 9630 ft | 152 kts | 151° |
| 2026-04-12 01:59 | 26.45845 | -81.94154 | 9669 ft | 152 kts | 151° |
| 2026-04-12 01:59 | 26.44884 | -81.93656 | 9709 ft | 152 kts | 150° |
| 2026-04-12 02:00 | 26.43933 | -81.93174 | 9750 ft | 152 kts | 150° |
| 2026-04-12 02:00 | 26.42966 | -81.92707 | 9789 ft | 151 kts | 150° |
| 2026-04-12 02:00 | 26.41999 | -81.92244 | 9826 ft | 151 kts | 152° |
| 2026-04-12 02:00 | 26.41038 | -81.91763 | 9864 ft | 152 kts | 151° |
| 2026-04-12 02:01 | 26.40082 | -81.91258 | 9903 ft | 152 kts | 150° |
| 2026-04-12 02:01 | 26.39119 | -81.90753 | 9944 ft | 152 kts | 151° |
| 2026-04-12 02:01 | 26.38160 | -81.90250 | 10005 ft | 152 kts | 150° |
| 2026-04-12 02:01 | 26.37196 | -81.89751 | 10038 ft | 152 kts | 150° |
| 2026-04-12 02:02 | 26.36240 | -81.89277 | 10088 ft | 152 kts | 151° |
| 2026-04-12 02:02 | 26.35273 | -81.88795 | 10124 ft | 152 kts | 152° |
| 2026-04-12 02:02 | 26.34313 | -81.88290 | 10152 ft | 152 kts | 151° |
| 2026-04-12 02:02 | 26.33355 | -81.87779 | 10186 ft | 153 kts | 150° |
| 2026-04-12 02:03 | 26.32386 | -81.87273 | 10220 ft | 153 kts | 149° |
| 2026-04-12 02:03 | 26.31409 | -81.86800 | 10264 ft | 153 kts | 151° |
| 2026-04-12 02:03 | 26.30431 | -81.86327 | 10303 ft | 153 kts | 150° |
| 2026-04-12 02:03 | 26.29448 | -81.85874 | 9995 ft | 151 kts | 135° |
| 2026-04-12 02:04 | 26.29263 | -81.84770 | 9152 ft | 167 kts | 64° |
| 2026-04-12 02:04 | 26.30363 | -81.84217 | 7619 ft | 217 kts | 348° |
| 2026-04-12 02:04 | 26.31081 | -81.85563 | 6372 ft | 226 kts | 269° |
| 2026-04-12 02:04 | 26.30147 | -81.86975 | 5081 ft | 230 kts | 204° |
| 2026-04-12 02:05 | 26.28781 | -81.86858 | 2568 ft | 242 kts | 121° |
| 2026-04-12 02:05 | 26.27990 | -81.85509 | 2502 ft | 180 kts | 121° |
| 2026-04-12 02:05 | 26.27272 | -81.84500 | 2473 ft | 153 kts | 124° |
| 2026-04-12 02:05 | 26.26608 | -81.83674 | 2493 ft | 135 kts | 126° |
| 2026-04-12 02:06 | 26.25976 | -81.82931 | 2414 ft | 129 kts | 126° |
| 2026-04-12 02:06 | 26.25313 | -81.82327 | 2360 ft | 125 kts | 155° |
| 2026-04-12 02:06 | 26.24452 | -81.82200 | 2293 ft | 126 kts | 168° |
| 2026-04-12 02:06 | 26.23556 | -81.82178 | 2156 ft | 128 kts | 170° |
| 2026-04-12 02:07 | 26.22682 | -81.82274 | 2111 ft | 123 kts | 176° |
| 2026-04-12 02:07 | 26.21841 | -81.82359 | 2046 ft | 121 kts | 173° |
| 2026-04-12 02:07 | 26.21039 | -81.82467 | 2114 ft | 99 kts | 155° |
| 2026-04-12 02:07 | 26.20776 | -81.81949 | 2202 ft | 90 kts | 83° |
| 2026-04-12 02:08 | 26.21073 | -81.81333 | 2371 ft | 102 kts | 54° |
| 2026-04-12 02:08 | 26.21628 | -81.80724 | 2385 ft | 116 kts | 50° |
| 2026-04-12 02:08 | 26.22217 | -81.80104 | 2539 ft | 117 kts | 49° |
| 2026-04-12 02:08 | 26.22701 | -81.79380 | 2521 ft | 123 kts | 75° |
| 2026-04-12 02:09 | 26.22412 | -81.78544 | 2569 ft | 133 kts | 139° |
| 2026-04-12 02:09 | 26.21406 | -81.78383 | 2312 ft | 167 kts | 180° |
| 2026-04-12 02:09 | 26.20285 | -81.78755 | 2077 ft | 169 kts | 201° |
| 2026-04-12 02:09 | 26.19304 | -81.79488 | 1835 ft | 165 kts | 211° |
| 2026-04-12 02:10 | 26.18427 | -81.80240 | 1718 ft | 155 kts | 211° |
| 2026-04-12 02:10 | 26.17622 | -81.80968 | 1540 ft | 145 kts | 211° |
| 2026-04-12 02:10 | 26.16767 | -81.81457 | 1486 ft | 124 kts | 176° |
| 2026-04-12 02:10 | 26.16006 | -81.81384 | 1523 ft | 105 kts | 149° |
| 2026-04-12 02:11 | 26.15323 | -81.81070 | 1415 ft | 104 kts | 143° |
| 2026-04-12 02:11 | 26.14702 | -81.80731 | 1222 ft | 98 kts | 140° |
| 2026-04-12 02:11 | 26.14122 | -81.80330 | 889 ft | 99 kts | 125° |
| 2026-04-12 02:11 | 26.13841 | -81.79703 | 763 ft | 91 kts | 93° |
| 2026-04-12 02:12 | 26.14012 | -81.78995 | 440 ft | 96 kts | 61° |
| 2026-04-12 02:12 | 26.14441 | -81.78449 | 136 ft | 95 kts | 46° |
| 2026-04-12 02:12 | 26.14895 | -81.77952 | 35 ft | 83 kts | 44° |
| 2026-04-12 02:12 | 26.15221 | -81.77599 | 15 ft | 28 kts | 44° |
| 2026-04-12 02:13 | 26.15219 | -81.77535 | 15 ft | 15 kts | 165° |
| 2026-04-12 02:13 | 26.15149 | -81.77484 | 13 ft | 18 kts | 195° |
| 2026-04-12 02:13 | 26.15004 | -81.77482 | 11 ft | 11 kts | 179° |
| 2026-04-12 02:13 | 26.14944 | -81.77487 | 12 ft | 5 kts | 223° |
| 2026-04-12 02:14 | 26.14959 | -81.77520 | 12 ft | 0 kts | 342° |